Youngstown, New York
Current Conditions -  °F | °C
As of 4:00 PM on Saturday 20 Dec 2014 (Local Time) from CYSN Reporting Station
Broken Clouds Broken Clouds  
Wind Chill: 25°   Ceiling: 25000
Heat Index: 30°   Visibility: 15mi
Dew Point: 23°   Wind: 5mph
Humidity: 75%   Direction: 340°NNW
Pressure: 30.26"   Gusts: NA
Location:  43.25°N, 79.05°W
Report Text: CYSN 202100Z 34004KT 15SM FEW020 BKN250 M01/M05 A3026 RMK SC1CI4 SLP252
Loading
Personal Weather Stations






























Interactive Weather Map New forecast layout! Learn more

10-Day Weather Forecast

Advertisements
Track Severe Weather on mobile